M I D A S
Marine Information and Data Acquisition System
Tripno 2148 of the Zeeleeuw from 2011-07-19 06:41:00 to 2011-07-19 14:12:29
Back to CruiseResearch ActivitiesStationsMapUnderway DataData graphs

EquipmentUnitsComments
TimeDGPSUTC
LatitudeDGPSDM.mWGS84
LongitudeDGPSDM.mWGS84
SpeedMeteo Stationm/sRelative wind speed
DirectionMeteo StationdegRelative wind direction
TemperatureMeteo Stationdeg CelciusAir temperature
PressureMeteo StationPaAtmospheric pressure
HumidityMeteo Station%Relative humidity
Missing or incorrect values are displayed as -999
Metereological data collected by the RV Zeeleeuw from 2011-07-19 06:43:17 to 2011-07-19 14:18:08
Time Latitude Longitude Speed Direction Temperature Pressure Humidity
2011-07-19 06:44 51°13.642 2°55.994 2.4 44 13.8 100250 44
2011-07-19 06:45 51°13.671 2°55.889 3.6 45 13.8 100250 45
2011-07-19 06:46 51°13.689 2°55.779 2.4 45 13.8 100250 43
2011-07-19 06:47 51°13.697 2°55.753 -999 55 13.8 100250 44
2011-07-19 06:48 51°13.688 2°55.743 -999 54 13.8 100250 43
2011-07-19 06:49 51°13.703 2°55.729 -999 306 13.9 100260 44
2011-07-19 06:50 51°13.785 2°55.666 2.6 303 14 100260 44
2011-07-19 06:51 51°13.908 2°55.586 1.4 323 14 100260 43
2011-07-19 06:52 51°14.04 2°55.484 1 332 14.1 100250 43
2011-07-19 06:53 51°14.184 2°55.369 4.9 327 14.1 100260 44
2011-07-19 06:54 51°14.334 2°55.235 5.4 303 14.2 100250 42
2011-07-19 06:55 51°14.484 2°55.089 5.5 308 14.2 100250 42
2011-07-19 06:56 51°14.642 2°54.9 6.7 302 14.2 100240 42
2011-07-19 06:57 51°14.812 2°54.715 6 304 14.3 100250 44
2011-07-19 06:58 51°14.999 2°54.543 6.8 309 14.3 100260 44
2011-07-19 06:59 51°15.162 2°54.326 5.8 304 14.3 100250 43
2011-07-19 07:00 51°15.337 2°54.126 6.8 308 14.3 100260 43
2011-07-19 07:01 51°15.504 2°53.908 6.3 302 14.2 100250 44
2011-07-19 07:02 51°15.676 2°53.711 6.6 305 14.3 100260 42
2011-07-19 07:03 51°15.843 2°53.499 6.5 306 14.2 100250 44
2011-07-19 07:04 51°16.032 2°53.345 5.8 309 14.3 100260 41
2011-07-19 07:05 51°16.219 2°53.187 5.9 303 14.2 100260 43
2011-07-19 07:06 51°16.405 2°53.026 6.8 306 14.3 100260 44
2011-07-19 07:07 51°16.595 2°52.877 5.9 306 14.3 100260 43
2011-07-19 07:08 51°16.787 2°52.742 7.1 309 14.3 100260 43
2011-07-19 07:09 51°16.974 2°52.591 5.6 303 14.3 100260 42
2011-07-19 07:10 51°17.169 2°52.466 6.3 307 14.3 100270 44
2011-07-19 07:11 51°17.363 2°52.333 6 306 14.3 100260 44
2011-07-19 07:12 51°17.554 2°52.188 5.7 304 14.2 100260 43
2011-07-19 07:13 51°17.748 2°52.053 5.1 302 14.2 100270 43
2011-07-19 07:14 51°17.94 2°51.914 6.3 307 14.3 100270 43
2011-07-19 07:15 51°18.13 2°51.764 6.1 307 14.3 100270 44
2011-07-19 07:16 51°18.322 2°51.629 5.3 309 14.3 100270 44
2011-07-19 07:17 51°18.515 2°51.483 4.4 302 14.3 100270 44
2011-07-19 07:18 51°18.71 2°51.328 5.6 308 14.3 100270 43
2011-07-19 07:19 51°18.907 2°51.194 5.9 305 14.3 100270 43
2011-07-19 07:20 51°19.098 2°51.054 5.1 304 14.4 100270 41
2011-07-19 07:21 51°19.3 2°50.909 6.3 302 14.4 100270 43
2011-07-19 07:22 51°19.487 2°50.765 5.5 303 14.4 100270 43
2011-07-19 07:23 51°19.688 2°50.615 5.5 305 14.4 100280 42
2011-07-19 07:24 51°19.875 2°50.461 5.6 304 14.3 100270 44
2011-07-19 07:25 51°20.081 2°50.321 5.3 302 14.3 100270 44
2011-07-19 07:26 51°20.27 2°50.177 6.2 307 14.3 100270 44
2011-07-19 07:27 51°20.463 2°50.022 6.6 309 14.4 100270 45
2011-07-19 07:28 51°20.66 2°49.881 5.6 305 14.3 100270 43
2011-07-19 07:29 51°20.852 2°49.728 4.9 304 14.4 100280 43
2011-07-19 07:30 51°21.048 2°49.591 6.2 304 14.4 100280 45
2011-07-19 07:31 51°21.241 2°49.439 4.8 308 14.4 100280 43
2011-07-19 07:32 51°21.446 2°49.294 5.5 308 14.4 100280 43
2011-07-19 07:33 51°21.631 2°49.138 4.7 309 14.5 100280 44
2011-07-19 07:34 51°21.83 2°48.977 6 303 14.5 100280 44
2011-07-19 07:35 51°22.015 2°48.819 6.8 303 14.5 100280 45
2011-07-19 07:36 51°22.205 2°48.654 4.9 306 14.4 100280 42
2011-07-19 07:37 51°22.4 2°48.506 5.5 307 14.4 100280 43
2011-07-19 07:38 51°22.589 2°48.341 7.2 308 14.4 100280 43
2011-07-19 07:39 51°22.785 2°48.194 5.9 301 14.5 100280 43
2011-07-19 07:40 51°22.975 2°48.026 6.1 305 14.5 100280 43
2011-07-19 07:41 51°23.175 2°47.869 6.1 305 14.5 100290 45
2011-07-19 07:42 51°23.359 2°47.711 5.8 304 14.5 100290 44
2011-07-19 07:43 51°23.558 2°47.549 5.4 308 14.5 100280 45
2011-07-19 07:44 51°23.747 2°47.406 5.6 307 14.5 100280 42
2011-07-19 07:45 51°23.942 2°47.233 5 301 14.6 100280 43
2011-07-19 07:46 51°24.123 2°47.07 4.6 307 14.6 100280 43
2011-07-19 07:47 51°24.317 2°46.924 5.2 305 14.6 100280 43
2011-07-19 07:48 51°24.509 2°46.761 5.8 308 14.6 100280 45
2011-07-19 07:49 51°24.696 2°46.607 6 303 14.5 100280 44
2011-07-19 07:50 51°24.887 2°46.453 7 309 14.5 100280 45
2011-07-19 07:51 51°25.075 2°46.287 5.2 302 14.6 100280 44
2011-07-19 07:52 51°25.263 2°46.125 5 308 14.7 100280 42
2011-07-19 07:53 51°25.461 2°45.996 4.3 303 14.7 100280 45
2011-07-19 07:54 51°25.656 2°45.857 5.4 302 14.7 100280 43
2011-07-19 07:55 51°25.851 2°45.713 4.7 308 14.7 100280 43
2011-07-19 07:56 51°26.05 2°45.588 4.8 308 14.7 100280 45
2011-07-19 07:57 51°26.246 2°45.452 5.5 303 14.8 100280 45
2011-07-19 07:58 51°26.44 2°45.313 6.1 309 14.8 100280 45
2011-07-19 07:59 51°26.633 2°45.167 5.4 307 14.8 100280 45
2011-07-19 08:00 51°26.829 2°45.033 5.2 308 14.8 100290 41
2011-07-19 08:01 51°27.024 2°44.898 5.9 307 14.8 100280 44
2011-07-19 08:02 51°27.219 2°44.756 5.8 306 14.8 100280 44
2011-07-19 08:03 51°27.412 2°44.608 4.6 308 14.8 100280 44
2011-07-19 08:04 51°27.608 2°44.473 4.9 303 14.8 100280 43
2011-07-19 08:05 51°27.805 2°44.344 5.5 301 15 100280 42
2011-07-19 08:06 51°27.997 2°44.195 6.1 301 15 100280 42
2011-07-19 08:07 51°28.189 2°44.051 5.4 304 15 100280 42
2011-07-19 08:08 51°28.389 2°43.914 6.2 303 14.9 100280 40
2011-07-19 08:09 51°28.574 2°43.772 5.5 307 15 100290 42
2011-07-19 08:10 51°28.769 2°43.638 6.5 302 15 100290 42
2011-07-19 08:11 51°28.962 2°43.493 5.5 300 15 100280 41
2011-07-19 08:12 51°29.159 2°43.371 6.8 307 15 100290 41
2011-07-19 08:13 51°29.35 2°43.227 7.1 302 15 100290 41
2011-07-19 08:14 51°29.547 2°43.121 5.9 304 15 100300 43
2011-07-19 08:15 51°29.749 2°43.166 4.7 307 15.1 100300 41
2011-07-19 08:16 51°29.949 2°43.231 4.3 307 15.1 100300 40
2011-07-19 08:17 51°30.158 2°43.296 3 307 15.1 100300 43
2011-07-19 08:18 51°30.358 2°43.352 3.9 303 15.2 100310 41
2011-07-19 08:19 51°30.558 2°43.395 3.8 303 15.3 100300 41
2011-07-19 08:20 51°30.759 2°43.455 4.2 302 15.3 100300 41
2011-07-19 08:21 51°30.962 2°43.5 4.1 303 15.3 100310 41
2011-07-19 08:22 51°31.165 2°43.543 5 307 15.3 100300 40
2011-07-19 08:23 51°31.366 2°43.599 3.8 305 15.3 100310 41
2011-07-19 08:24 51°31.567 2°43.649 4.6 301 15.4 100300 39
2011-07-19 08:25 51°31.768 2°43.695 4.3 303 15.4 100310 41
2011-07-19 08:26 51°31.972 2°43.754 3.4 304 15.4 100310 40
2011-07-19 08:27 51°32.14 2°43.909 1.6 306 15.4 100310 42
2011-07-19 08:28 51°32.303 2°44.082 0.1 325 15.5 100310 42
2011-07-19 08:29 51°32.468 2°44.251 -999 305 15.4 100320 41
2011-07-19 08:30 51°32.639 2°44.406 -999 305 15.5 100310 41
2011-07-19 08:31 51°32.808 2°44.57 2.1 301 15.7 100320 41
2011-07-19 08:32 51°32.977 2°44.733 3.4 307 15.7 100320 40
2011-07-19 08:33 51°33.146 2°44.894 1.8 303 15.7 100320 41
2011-07-19 08:34 51°33.329 2°45.008 4.5 300 15.8 100310 42
2011-07-19 08:35 51°33.513 2°45.118 3.5 309 15.8 100320 41
2011-07-19 08:36 51°33.698 2°45.233 4.4 309 15.7 100310 41
2011-07-19 08:37 51°33.885 2°45.339 3.1 310 15.6 100310 41
2011-07-19 08:38 51°34.068 2°45.46 3.9 309 15.5 100310 42
2011-07-19 08:39 51°34.256 2°45.567 4 307 15.5 100320 40
2011-07-19 08:40 51°34.443 2°45.678 2.9 302 15.4 100320 39
2011-07-19 08:41 51°34.639 2°45.746 5.2 308 15.4 100310 40
2011-07-19 08:42 51°34.843 2°45.795 5.1 303 15.4 100310 40
2011-07-19 08:43 51°35.037 2°45.854 4.1 301 15.4 100320 40
2011-07-19 08:44 51°35.234 2°45.906 3.8 303 15.4 100320 41
2011-07-19 08:45 51°35.429 2°45.967 1.9 304 15.5 100320 40
2011-07-19 08:46 51°35.62 2°46.05 3.3 310 15.5 100320 41
2011-07-19 08:47 51°35.81 2°46.136 2 306 15.4 100320 42
2011-07-19 08:48 51°36 2°46.232 3.6 303 15.5 100320 38
2011-07-19 08:49 51°36.189 2°46.32 3.4 302 15.5 100320 41
2011-07-19 08:50 51°36.376 2°46.413 1.6 309 15.5 100320 40
2011-07-19 08:51 51°36.565 2°46.508 1.4 308 15.5 100320 41
2011-07-19 08:52 51°36.747 2°46.62 0.3 308 15.6 100320 41
2011-07-19 08:53 51°36.923 2°46.749 4.2 301 15.7 100320 41
2011-07-19 08:54 51°37.105 2°46.859 2.3 304 15.8 100320 40
2011-07-19 08:55 51°37.286 2°46.976 3.2 308 15.7 100330 40
2011-07-19 08:56 51°37.467 2°47.089 2.6 302 15.7 100330 41
2011-07-19 08:57 51°37.648 2°47.205 -999 305 15.8 100320 40
2011-07-19 08:58 51°37.827 2°47.325 -999 305 15.8 100330 41
2011-07-19 08:59 51°38.008 2°47.44 4.5 303 15.8 100320 41
2011-07-19 09:00 51°38.19 2°47.548 3.5 304 15.8 100320 39
2011-07-19 09:01 51°38.368 2°47.666 3 302 15.8 100330 41
2011-07-19 09:02 51°38.55 2°47.771 2.7 304 15.7 100330 41
2011-07-19 09:03 51°38.73 2°47.879 2.3 304 15.7 100330 40
2011-07-19 09:04 51°38.909 2°47.99 2.5 307 15.6 100340 40
2011-07-19 09:05 51°39.086 2°48.104 4.1 309 15.6 100340 41
2011-07-19 09:06 51°39.264 2°48.211 1.6 300 15.6 100330 41
2011-07-19 09:07 51°39.44 2°48.322 2.4 301 15.7 100340 40
2011-07-19 09:08 51°39.619 2°48.424 2.9 303 15.8 100330 40
2011-07-19 09:09 51°39.798 2°48.525 3.7 309 15.8 100340 41
2011-07-19 09:10 51°39.975 2°48.624 0.2 305 15.8 100330 41
2011-07-19 09:11 51°40.153 2°48.734 0.1 305 15.8 100340 41
2011-07-19 09:12 51°40.331 2°48.84 -999 305 15.9 100330 40
2011-07-19 09:13 51°40.511 2°48.948 3.1 304 15.9 100330 42
2011-07-19 09:14 51°40.69 2°49.056 3.2 303 15.9 100330 41
2011-07-19 09:15 51°40.869 2°49.165 3.5 304 15.9 100330 40
2011-07-19 09:16 51°41.046 2°49.273 2.7 303 15.8 100330 42
2011-07-19 09:17 51°41.222 2°49.389 1.7 302 15.7 100330 42
2011-07-19 09:18 51°41.4 2°49.494 1.1 309 15.7 100340 42
2011-07-19 09:19 51°41.587 2°49.558 3.2 306 15.6 100330 42
2011-07-19 09:20 51°41.773 2°49.61 4.8 307 15.7 100330 41
2011-07-19 09:21 51°41.93 2°49.427 7.7 305 15.6 100320 42
2011-07-19 09:22 51°42.076 2°49.19 7.8 303 15.5 100320 41
2011-07-19 09:23 51°42.226 2°48.958 7.6 301 15.4 100310 42
2011-07-19 09:24 51°42.37 2°48.718 8.1 306 15.4 100310 41
2011-07-19 09:25 51°42.42 2°48.387 4.5 323 15.3 100310 42
2011-07-19 09:26 51°42.343 2°48.057 9.7 332 15.3 100320 41
2011-07-19 09:27 51°42.161 2°47.833 4.9 338 15.3 100320 42
2011-07-19 09:28 51°41.94 2°47.754 9.9 341 15.4 100320 40
2011-07-19 09:29 51°41.716 2°47.675 8.7 339 15.4 100320 42
2011-07-19 09:30 51°41.496 2°47.563 5.1 341 15.4 100320 42
2011-07-19 09:31 51°41.277 2°47.43 5.4 341 15.4 100330 41
2011-07-19 09:32 51°41.061 2°47.324 9.8 343 15.4 100330 42
2011-07-19 09:33 51°40.835 2°47.211 8.4 341 15.4 100330 42
2011-07-19 09:34 51°40.614 2°47.101 9.6 341 15.4 100320 42
2011-07-19 09:35 51°40.389 2°47.025 8.9 340 15.4 100320 42
2011-07-19 09:36 51°40.165 2°46.933 8.9 341 15.3 100320 42
2011-07-19 09:37 51°39.941 2°46.827 8.9 343 15.4 100320 43
2011-07-19 09:38 51°39.72 2°46.703 9.8 340 15.5 100320 42
2011-07-19 09:39 51°39.5 2°46.584 4 339 15.5 100320 43
2011-07-19 09:40 51°39.285 2°46.441 8.9 339 15.5 100320 41
2011-07-19 09:41 51°39.074 2°46.279 9.4 338 15.5 100330 42
2011-07-19 09:42 51°38.865 2°46.106 9.1 339 15.5 100330 41
2011-07-19 09:43 51°38.654 2°45.94 8.5 342 15.5 100320 42
2011-07-19 09:44 51°38.427 2°45.867 8.9 345 15.5 100320 42
2011-07-19 09:45 51°38.197 2°45.799 8.4 342 15.4 100320 41
2011-07-19 09:46 51°37.971 2°45.697 8.9 338 15.4 100330 43
2011-07-19 09:47 51°37.753 2°45.55 10.4 343 15.4 100320 41
2011-07-19 09:48 51°37.532 2°45.424 9.7 346 15.4 100320 42
2011-07-19 09:49 51°37.309 2°45.298 9.6 344 15.4 100320 42
2011-07-19 09:50 51°37.09 2°45.153 9.1 340 15.3 100330 42
2011-07-19 09:51 51°36.872 2°45.013 10 341 15.3 100320 43
2011-07-19 09:52 51°36.652 2°44.88 4.4 342 15.4 100330 41
2011-07-19 09:53 51°36.431 2°44.75 9.2 343 15.3 100330 41
2011-07-19 09:54 51°36.213 2°44.604 9.9 341 15.4 100330 43
2011-07-19 09:55 51°35.994 2°44.469 9 343 15.5 100330 41
2011-07-19 09:56 51°35.772 2°44.349 8.5 346 15.4 100330 42
2011-07-19 09:57 51°35.545 2°44.266 8.3 344 15.4 100320 41
2011-07-19 09:58 51°35.315 2°44.204 8.8 342 15.3 100330 43
2011-07-19 09:59 51°35.086 2°44.129 7.4 344 15.3 100330 43
2011-07-19 10:00 51°34.856 2°44.069 8.9 346 15.3 100320 42
2011-07-19 10:01 51°34.628 2°43.988 9.6 343 15.2 100330 43
2011-07-19 10:02 51°34.398 2°43.926 3.9 344 15.2 100320 43
2011-07-19 10:03 51°34.164 2°43.861 10 341 15.2 100330 43
2011-07-19 10:04 51°33.941 2°43.783 9.4 343 15.3 100330 42
2011-07-19 10:05 51°33.713 2°43.719 6.9 346 15.2 100330 41
2011-07-19 10:06 51°33.485 2°43.654 9.7 339 15.2 100320 43
2011-07-19 10:07 51°33.314 2°43.421 9.6 334 15.3 100330 43
2011-07-19 10:08 51°33.177 2°43.114 9.5 336 15.3 100320 43
2011-07-19 10:09 51°33.047 2°42.797 8 335 15.3 100330 42
2011-07-19 10:10 51°32.908 2°42.488 9.7 333 15.4 100320 43
2011-07-19 10:11 51°32.792 2°42.155 8.5 333 15.4 100330 42
2011-07-19 10:12 51°32.675 2°41.822 9.2 334 15.4 100330 41
2011-07-19 10:13 51°32.549 2°41.499 8.6 333 15.4 100320 42
2011-07-19 10:14 51°32.43 2°41.168 11.5 334 15.4 100320 42
2011-07-19 10:15 51°32.346 2°40.826 7.1 304 15.3 100330 42
2011-07-19 10:16 51°32.365 2°40.468 8.5 301 15.5 100320 43
2011-07-19 10:17 51°32.474 2°40.236 5.4 300 15.5 100320 42
2011-07-19 10:18 51°32.644 2°40.294 3.3 304 15.5 100330 40
2011-07-19 10:19 51°32.825 2°40.37 4.7 303 15.5 100330 42
2011-07-19 10:20 51°32.993 2°40.462 2.6 307 15.5 100330 42
2011-07-19 10:21 51°33.167 2°40.54 4.8 304 15.5 100330 41
2011-07-19 10:22 51°33.338 2°40.624 4 306 15.4 100330 40
2011-07-19 10:23 51°33.509 2°40.718 4.6 309 15.4 100330 42
2011-07-19 10:24 51°33.685 2°40.795 4.2 301 15.4 100330 40
2011-07-19 10:25 51°33.85 2°40.887 4.7 302 15.5 100320 42
2011-07-19 10:26 51°34.021 2°40.964 3.5 309 15.4 100330 42
2011-07-19 10:27 51°34.19 2°41.059 4 306 15.4 100330 42
2011-07-19 10:28 51°34.356 2°41.14 3.6 304 15.4 100330 41
2011-07-19 10:29 51°34.527 2°41.22 3.8 301 15.3 100330 40
2011-07-19 10:30 51°34.698 2°41.31 3.7 308 15.4 100330 42
2011-07-19 10:31 51°34.864 2°41.394 3.7 302 15.4 100330 42
2011-07-19 10:32 51°35.04 2°41.484 3.7 308 15.4 100320 42
2011-07-19 10:33 51°35.209 2°41.559 4.4 302 15.4 100330 42
2011-07-19 10:34 51°35.374 2°41.646 4.1 306 15.5 100330 42
2011-07-19 10:35 51°35.546 2°41.724 4.2 307 15.5 100330 40
2011-07-19 10:36 51°35.716 2°41.818 3.8 302 15.4 100330 40
2011-07-19 10:37 51°35.883 2°41.904 4.6 303 15.4 100330 42
2011-07-19 10:38 51°36.055 2°41.983 4.1 303 15.4 100330 42
2011-07-19 10:39 51°36.232 2°42.072 3 303 15.3 100330 42
2011-07-19 10:40 51°36.398 2°42.168 2.6 310 15.4 100330 41
2011-07-19 10:41 51°36.569 2°42.242 3.5 302 15.4 100330 43
2011-07-19 10:42 51°36.739 2°42.333 3.4 307 15.4 100330 41
2011-07-19 10:43 51°36.913 2°42.412 3.4 308 15.5 100330 41
2011-07-19 10:44 51°37.07 2°42.532 2.7 309 15.4 100340 40
2011-07-19 10:45 51°37.237 2°42.633 2.8 308 15.4 100330 41
2011-07-19 10:46 51°37.407 2°42.735 3.7 303 15.4 100340 42
2011-07-19 10:47 51°37.572 2°42.829 4.2 302 15.5 100330 42
2011-07-19 10:48 51°37.741 2°42.924 2.4 303 15.5 100330 40
2011-07-19 10:49 51°37.907 2°43.026 3.9 304 15.6 100330 41
2011-07-19 10:50 51°38.077 2°43.122 3.7 309 15.6 100330 41
2011-07-19 10:51 51°38.245 2°43.218 3.4 308 15.6 100330 41
2011-07-19 10:52 51°38.413 2°43.299 2 308 15.6 100330 41
2011-07-19 10:53 51°38.578 2°43.401 3.2 308 15.6 100330 42
2011-07-19 10:54 51°38.744 2°43.501 2.5 303 15.6 100330 43
2011-07-19 10:55 51°38.915 2°43.585 4.5 306 15.6 100330 41
2011-07-19 10:56 51°39.087 2°43.675 4 307 15.6 100330 41
2011-07-19 10:57 51°39.257 2°43.761 4 307 15.6 100320 40
2011-07-19 10:58 51°39.422 2°43.856 0.1 304 15.5 100330 42
2011-07-19 10:59 51°39.599 2°43.944 2.3 306 15.5 100330 42
2011-07-19 11:00 51°39.762 2°44.036 3.3 309 15.6 100330 42
2011-07-19 11:01 51°39.93 2°44.129 3.5 303 15.7 100320 43
2011-07-19 11:02 51°40.101 2°44.214 -999 305 15.8 100330 42
2011-07-19 11:03 51°40.273 2°44.308 -999 305 15.8 100320 41
2011-07-19 11:04 51°40.443 2°44.387 -999 305 15.7 100320 40
2011-07-19 11:05 51°40.617 2°44.477 -999 305 15.7 100320 41
2011-07-19 11:06 51°40.788 2°44.581 -999 299 15.7 100320 41
2011-07-19 11:07 51°40.955 2°44.664 3.4 303 15.8 100330 42
2011-07-19 11:08 51°41.127 2°44.753 4.2 303 15.9 100320 40
2011-07-19 11:09 51°41.302 2°44.846 3.6 309 15.8 100320 41
2011-07-19 11:10 51°41.479 2°44.933 2.5 305 15.7 100330 41
2011-07-19 11:11 51°41.65 2°45.033 3.8 301 15.7 100320 40
2011-07-19 11:12 51°41.817 2°45.114 2.5 301 15.9 100320 39
2011-07-19 11:13 51°41.99 2°45.208 3 303 15.9 100330 42
2011-07-19 11:14 51°42.164 2°45.295 4.4 303 16 100330 43
2011-07-19 11:15 51°42.341 2°45.39 4.1 302 15.9 100330 40
2011-07-19 11:16 51°42.512 2°45.481 4.9 306 15.9 100330 42
2011-07-19 11:17 51°42.686 2°45.575 3.6 301 15.8 100330 41
2011-07-19 11:18 51°42.86 2°45.672 4 301 15.7 100330 42
2011-07-19 11:19 51°43.029 2°45.77 3.9 303 15.7 100330 40
2011-07-19 11:20 51°43.204 2°45.852 4.3 307 15.8 100340 40
2011-07-19 11:21 51°43.376 2°45.944 3.1 307 15.8 100330 42
2011-07-19 11:22 51°43.555 2°45.975 5.5 307 15.8 100340 42
2011-07-19 11:23 51°43.7 2°45.775 8.6 304 15.8 100330 42
2011-07-19 11:24 51°43.824 2°45.504 6.3 307 15.8 100320 41
2011-07-19 11:25 51°43.955 2°45.256 7.4 304 15.7 100330 41
2011-07-19 11:26 51°44.085 2°44.991 7.8 302 15.7 100330 42
2011-07-19 11:27 51°44.215 2°44.743 7.6 303 15.7 100330 42
2011-07-19 11:28 51°44.351 2°44.499 8.1 308 15.6 100330 41
2011-07-19 11:29 51°44.474 2°44.235 11.1 309 15.6 100340 43
2011-07-19 11:30 51°44.451 2°43.904 10.8 331 15.7 100330 42
2011-07-19 11:31 51°44.259 2°43.729 8.7 341 15.6 100330 42
2011-07-19 11:32 51°44.028 2°43.708 4.4 344 15.6 100330 41
2011-07-19 11:33 51°43.786 2°43.699 8.7 346 15.4 100330 41
2011-07-19 11:34 51°43.562 2°43.67 4.7 346 15.4 100330 41
2011-07-19 11:35 51°43.33 2°43.657 10.4 343 15.4 100330 42
2011-07-19 11:36 51°43.099 2°43.636 8.4 337 15.5 100330 40
2011-07-19 11:37 51°42.876 2°43.521 9.1 336 15.6 100340 41
2011-07-19 11:38 51°42.653 2°43.399 10.3 338 15.6 100340 42
2011-07-19 11:39 51°42.427 2°43.295 9.8 340 15.6 100340 42
2011-07-19 11:40 51°42.194 2°43.182 9.2 340 15.6 100330 40
2011-07-19 11:41 51°41.976 2°43.075 11.3 342 15.7 100340 41
2011-07-19 11:42 51°41.74 2°42.977 8.2 338 15.7 100340 42
2011-07-19 11:43 51°41.522 2°42.87 9.8 340 15.7 100350 42
2011-07-19 11:44 51°41.297 2°42.757 8.8 339 15.7 100350 39
2011-07-19 11:45 51°41.07 2°42.661 10.2 336 15.7 100360 42
2011-07-19 11:46 51°40.846 2°42.548 3.7 338 15.7 100360 42
2011-07-19 11:47 51°40.619 2°42.447 8.2 340 15.7 100370 42
2011-07-19 11:48 51°40.401 2°42.332 9.5 340 15.7 100360 42
2011-07-19 11:49 51°40.175 2°42.23 10.8 341 15.7 100360 41
2011-07-19 11:50 51°39.951 2°42.118 9.7 339 15.7 100360 41
2011-07-19 11:51 51°39.726 2°42.016 8 339 15.7 100370 42
2011-07-19 11:52 51°39.502 2°41.91 8.2 338 15.8 100370 41
2011-07-19 11:53 51°39.275 2°41.785 9.4 338 15.8 100370 42
2011-07-19 11:54 51°39.049 2°41.679 9.1 337 15.8 100370 42
2011-07-19 11:55 51°38.83 2°41.565 8.8 340 15.8 100380 41
2011-07-19 11:56 51°38.607 2°41.449 9.3 339 15.9 100380 42
2011-07-19 11:57 51°38.384 2°41.336 9.7 336 15.8 100380 42
2011-07-19 11:58 51°38.162 2°41.229 8.8 337 15.8 100380 42
2011-07-19 11:59 51°37.942 2°41.109 8.2 335 15.8 100380 42
2011-07-19 12:00 51°37.718 2°40.985 7.9 336 15.8 100380 41
2011-07-19 12:01 51°37.496 2°40.881 8.6 338 15.8 100380 41
2011-07-19 12:02 51°37.28 2°40.768 8.7 337 15.7 100390 41
2011-07-19 12:03 51°37.06 2°40.655 8.2 334 15.8 100390 42
2011-07-19 12:04 51°36.841 2°40.535 8.1 337 15.8 100380 42
2011-07-19 12:05 51°36.622 2°40.423 7.9 337 15.8 100380 42
2011-07-19 12:06 51°36.403 2°40.306 9.2 337 15.7 100380 41
2011-07-19 12:07 51°36.179 2°40.199 8 334 15.8 100380 41
2011-07-19 12:08 51°35.963 2°40.093 7.9 335 15.8 100390 42
2011-07-19 12:09 51°35.745 2°39.978 8.4 336 15.7 100380 43
2011-07-19 12:10 51°35.525 2°39.871 7.9 336 15.7 100380 41
2011-07-19 12:11 51°35.308 2°39.756 7.9 334 15.7 100390 42
2011-07-19 12:12 51°35.091 2°39.649 8.4 339 15.7 100390 43
2011-07-19 12:13 51°34.873 2°39.541 7.1 335 15.8 100390 42
2011-07-19 12:14 51°34.657 2°39.404 7.9 336 15.7 100390 42
2011-07-19 12:15 51°34.449 2°39.278 8.5 335 15.7 100390 43
2011-07-19 12:16 51°34.235 2°39.151 8.7 337 15.6 100390 41
2011-07-19 12:17 51°34.018 2°39.042 8 338 15.7 100390 42
2011-07-19 12:18 51°33.807 2°38.909 8.5 338 15.7 100400 41
2011-07-19 12:19 51°33.589 2°38.794 9.5 335 15.8 100390 41
2011-07-19 12:20 51°33.377 2°38.661 7.5 335 15.7 100390 41
2011-07-19 12:21 51°33.16 2°38.539 8 335 15.7 100390 42
2011-07-19 12:22 51°32.948 2°38.423 6.9 336 15.7 100390 42
2011-07-19 12:23 51°32.734 2°38.301 7.6 335 15.8 100390 41
2011-07-19 12:24 51°32.521 2°38.174 9.5 337 15.8 100390 42
2011-07-19 12:25 51°32.306 2°38.058 7.2 338 15.8 100390 42
2011-07-19 12:26 51°32.091 2°37.943 6.6 339 15.8 100400 42
2011-07-19 12:27 51°31.875 2°37.831 6.4 340 15.9 100390 42
2011-07-19 12:28 51°31.655 2°37.715 7.1 338 15.9 100390 42
2011-07-19 12:29 51°31.443 2°37.599 7.6 343 15.9 100390 42
2011-07-19 12:30 51°31.224 2°37.494 7.4 342 15.9 100390 42
2011-07-19 12:31 51°31.007 2°37.377 3.7 337 15.9 100400 43
2011-07-19 12:32 51°30.792 2°37.254 7.1 337 15.9 100390 43
2011-07-19 12:33 51°30.573 2°37.152 6.5 339 15.9 100390 41
2011-07-19 12:34 51°30.354 2°37.035 8.1 341 15.9 100390 41
2011-07-19 12:35 51°30.138 2°36.93 7.9 338 15.9 100390 41
2011-07-19 12:36 51°29.928 2°36.815 6.8 339 15.9 100390 41
2011-07-19 12:37 51°29.711 2°36.72 6.9 339 15.9 100390 40
2011-07-19 12:38 51°29.497 2°36.605 3.2 341 15.9 100380 41
2011-07-19 12:39 51°29.283 2°36.501 6.7 346 15.9 100390 41
2011-07-19 12:40 51°29.083 2°36.615 5.4 343 15.9 100390 40
2011-07-19 12:41 51°28.93 2°36.848 3.8 339 15.9 100390 41
2011-07-19 12:42 51°28.771 2°37.078 4.8 342 15.9 100400 42
2011-07-19 12:43 51°28.598 2°37.304 5 346 15.9 100390 41
2011-07-19 12:44 51°28.428 2°37.502 4.5 343 15.9 100390 41
2011-07-19 12:45 51°28.26 2°37.731 3.4 341 15.8 100400 42
2011-07-19 12:46 51°28.095 2°37.948 4.2 341 15.8 100400 42
2011-07-19 12:47 51°27.925 2°38.162 3.3 338 15.9 100400 41
2011-07-19 12:48 51°27.756 2°38.389 5.2 341 15.9 100400 42
2011-07-19 12:49 51°27.591 2°38.604 3.4 341 16 100390 42
2011-07-19 12:50 51°27.423 2°38.83 4.6 340 16 100400 43
2011-07-19 12:51 51°27.256 2°39.044 5 345 16 100400 42
2011-07-19 12:52 51°27.091 2°39.267 4 340 15.9 100400 43
2011-07-19 12:53 51°26.928 2°39.494 3.9 341 16 100400 43
2011-07-19 12:54 51°26.759 2°39.711 4 338 16 100400 42
2011-07-19 12:55 51°26.597 2°39.941 4 336 16.1 100400 43
2011-07-19 12:56 51°26.43 2°40.163 4.2 337 16.1 100400 43
2011-07-19 12:57 51°26.264 2°40.393 4.5 337 16.1 100400 43
2011-07-19 12:58 51°26.104 2°40.615 3.8 342 16.1 100400 42
2011-07-19 12:59 51°25.948 2°40.848 3.6 339 16.1 100400 42
2011-07-19 13:00 51°25.783 2°41.074 4 341 16.1 100400 42
2011-07-19 13:01 51°25.621 2°41.298 3.9 339 16.1 100410 42
2011-07-19 13:02 51°25.469 2°41.529 4.6 335 16.2 100410 44
2011-07-19 13:03 51°25.303 2°41.754 5 336 16.2 100410 43
2011-07-19 13:04 51°25.151 2°41.986 4.4 336 16.1 100410 43
2011-07-19 13:05 51°24.992 2°42.225 3.9 336 16.1 100410 43
2011-07-19 13:06 51°24.829 2°42.443 4.3 332 16.2 100410 43
2011-07-19 13:07 51°24.666 2°42.67 4 330 16.2 100410 43
2011-07-19 13:08 51°24.511 2°42.918 2.3 301 16.2 100410 41
2011-07-19 13:09 51°24.362 2°43.159 3.5 338 16.3 100410 42
2011-07-19 13:10 51°24.203 2°43.393 3.6 339 16.2 100410 41
2011-07-19 13:11 51°24.048 2°43.637 3.8 335 16.2 100410 43
2011-07-19 13:12 51°23.899 2°43.877 3.2 333 16.3 100420 41
2011-07-19 13:13 51°23.735 2°44.111 4.2 333 16.3 100420 43
2011-07-19 13:14 51°23.583 2°44.349 3.4 334 16.4 100410 42
2011-07-19 13:15 51°23.455 2°44.616 3 301 16.3 100410 41
2011-07-19 13:16 51°23.339 2°44.899 3.4 330 16.5 100410 43
2011-07-19 13:17 51°23.167 2°45.084 3.7 336 16.5 100410 41
2011-07-19 13:18 51°22.952 2°45.106 3.7 336 16.5 100400 41
2011-07-19 13:19 51°22.738 2°45.128 4.4 340 16.5 100410 43
2011-07-19 13:20 51°22.533 2°45.196 3.8 334 16.4 100410 43
2011-07-19 13:21 51°22.344 2°45.38 4 335 16.4 100410 42
2011-07-19 13:22 51°22.172 2°45.569 3.8 300 16.4 100410 41
2011-07-19 13:23 51°22.003 2°45.788 2.9 332 16.4 100410 43
2011-07-19 13:24 51°21.829 2°45.996 2 333 16.5 100410 42
2011-07-19 13:25 51°21.658 2°46.215 3.3 331 16.5 100410 42
2011-07-19 13:26 51°21.497 2°46.46 2.3 333 16.6 100410 41
2011-07-19 13:27 51°21.337 2°46.677 3.3 330 16.5 100410 41
2011-07-19 13:28 51°21.175 2°46.919 4.4 308 16.6 100410 43
2011-07-19 13:29 51°21.029 2°47.172 3.2 309 16.7 100410 43
2011-07-19 13:30 51°20.87 2°47.415 4.1 302 16.8 100410 41
2011-07-19 13:31 51°20.712 2°47.663 3.3 333 16.8 100410 42
2011-07-19 13:32 51°20.564 2°47.905 2.6 329 16.8 100410 41
2011-07-19 13:33 51°20.403 2°48.14 3.2 300 16.8 100410 42
2011-07-19 13:34 51°20.25 2°48.372 4 303 16.8 100410 41
2011-07-19 13:35 51°20.09 2°48.619 4.7 324 16.8 100410 43
2011-07-19 13:36 51°19.934 2°48.837 4.1 321 16.8 100410 42
2011-07-19 13:37 51°19.777 2°49.076 0.1 304 16.8 100410 43
2011-07-19 13:38 51°19.62 2°49.307 3.8 303 16.9 100420 42
2011-07-19 13:39 51°19.461 2°49.545 3.4 323 16.8 100420 42
2011-07-19 13:40 51°19.29 2°49.771 4.2 306 16.8 100420 43
2011-07-19 13:41 51°19.136 2°50.009 2.9 306 16.8 100410 41
2011-07-19 13:42 51°18.978 2°50.254 3.5 302 16.9 100410 42
2011-07-19 13:43 51°18.81 2°50.479 3.2 303 16.9 100410 42
2011-07-19 13:44 51°18.651 2°50.718 2.9 301 16.9 100410 41
2011-07-19 13:45 51°18.49 2°50.927 -999 332 16.9 100410 40
2011-07-19 13:46 51°18.322 2°51.163 3.8 323 16.9 100420 40
2011-07-19 13:47 51°18.159 2°51.369 3.3 306 16.9 100420 41
2011-07-19 13:48 51°17.989 2°51.581 0.1 326 16.9 100420 41
2011-07-19 13:49 51°17.808 2°51.756 -999 328 16.8 100420 41
2011-07-19 13:50 51°17.627 2°51.946 -999 304 16.8 100420 41
2011-07-19 13:51 51°17.442 2°52.115 -999 304 16.8 100420 41
2011-07-19 13:52 51°17.267 2°52.278 -999 304 16.8 100420 41
2011-07-19 13:53 51°17.085 2°52.452 -999 328 16.8 100420 41
2011-07-19 13:54 51°16.902 2°52.599 -999 304 16.8 100420 41
2011-07-19 13:55 51°16.72 2°52.765 -999 304 17 100420 42
2011-07-19 13:56 51°16.531 2°52.928 -999 328 17 100410 41
2011-07-19 13:57 51°16.349 2°53.078 1.6 325 17.1 100410 41
2011-07-19 13:58 51°16.163 2°53.252 -999 329 17.2 100410 41
2011-07-19 13:59 51°15.981 2°53.407 0.1 330 17.2 100410 42
2011-07-19 14:00 51°15.795 2°53.549 0.1 329 17.3 100410 41
2011-07-19 14:01 51°15.613 2°53.711 -999 304 17.3 100410 42
2011-07-19 14:02 51°15.437 2°53.889 -999 299 17.4 100410 42
2011-07-19 14:03 51°15.257 2°54.072 2.6 306 17.5 100410 41
2011-07-19 14:04 51°15.086 2°54.272 -999 305 17.5 100410 42
2011-07-19 14:05 51°14.925 2°54.486 3.3 301 17.4 100410 42
2011-07-19 14:06 51°14.771 2°54.718 1.6 308 17.3 100410 41
2011-07-19 14:07 51°14.607 2°54.95 1.1 310 17.3 100410 41
2011-07-19 14:08 51°14.434 2°55.134 -999 304 17.4 100410 41
2011-07-19 14:09 51°14.279 2°55.284 -999 305 17.4 100410 41
2011-07-19 14:10 51°14.167 2°55.382 -999 305 17.5 100410 42
2011-07-19 14:11 51°14.056 2°55.467 -999 305 17.6 100420 42
2011-07-19 14:12 51°13.95 2°55.543 -999 305 17.8 100420 42
2011-07-19 14:13 51°13.844 2°55.618 -999 56 18 100410 42
2011-07-19 14:14 51°13.764 2°55.705 -999 305 18.1 100410 42
2011-07-19 14:15 51°13.709 2°55.802 -999 304 18.1 100420 41
2011-07-19 14:16 51°13.668 2°55.894 -999 304 18 100410 40
2011-07-19 14:17 51°13.645 2°55.974 0.1 304 17.8 100410 40